This is the latest recevied weather packets stored in our database for station/object NY3Q. If no packets are shown the sender has not sent any weather packets the latest 10 day(s).
| Time | Temp. | Humidity | Pressure | Rain* | Wind** | Luminosity | Snow |
|---|---|---|---|---|---|---|---|
| 1777583445 | 28.33° C | 62% | 1007.9 hPa | 0 mm | - | 211 W/m² | - |
| 1777583144 | 28.33° C | 62% | 1008.1 hPa | 0 mm | - | 240 W/m² | - |
| 1777582538 | 28.33° C | 61% | 1008 hPa | 0 mm | - | 88 W/m² | - |
| 1777582232 | 28.33° C | 60% | 1007.8 hPa | 0 mm | - | 115 W/m² | - |
| 1777581320 | 30° C | 59% | 1008.2 hPa | 0 mm | - | 265 W/m² | - |
| 1777581015 | 29.44° C | 64% | 1008.3 hPa | 0 mm | - | 479 W/m² | - |
| 1777580411 | 27.78° C | 71% | 1008.3 hPa | 0 mm | - | 508 W/m² | - |
| 1777580107 | 27.78° C | 77% | 1008.5 hPa | 0 mm | - | 519 W/m² | - |
| 1777579197 | 26.11° C | 81% | 1008.8 hPa | 0 mm | - | 601 W/m² | - |
| 1777578892 | 25.56° C | 81% | 1008.8 hPa | 0 mm | - | 281 W/m² | - |
| 1777577979 | 24.44° C | 84% | 1009.1 hPa | 0 mm | - | 257 W/m² | - |
| 1777577673 | 24.44° C | 85% | 1009.2 hPa | 1.78 mm | - | 224 W/m² | - |
| 1777577371 | 23.89° C | 84% | 1009.5 hPa | 1.78 mm | - | 203 W/m² | - |
| 1777577067 | 23.89° C | 83% | 1009.4 hPa | 4.32 mm | - | 145 W/m² | - |
| 1777576463 | 25° C | 80% | 1009.5 hPa | 1.78 mm | - | 84 W/m² | - |
| 1777575553 | 27.22° C | 70% | 1009.6 hPa | 1.27 mm | - | 45 W/m² | - |
| 1777575249 | 28.33° C | 65% | 1009.7 hPa | 0 mm | - | 39 W/m² | - |
| 1777574338 | 30° C | 53% | 1009.1 hPa | 0 mm | - | 68 W/m² | - |
| 1777573429 | 31.67° C | 50% | 1009.3 hPa | 0 mm | - | 166 W/m² | - |
| 1777573125 | 31.11° C | 52% | 1009.3 hPa | 0 mm | - | 739 W/m² | - |
| 1777571302 | 32.22° C | 52% | 1009.8 hPa | 0 mm | - | 768 W/m² | - |
| 1777570694 | 32.22° C | 51% | 1009.8 hPa | 0 mm | - | 720 W/m² | - |
| 1777569783 | 32.22° C | 49% | 1010.2 hPa | 0 mm | - | 170 W/m² | - |
| 1777568265 | 31.11° C | 50% | 1010.3 hPa | 0 mm | - | 141 W/m² | - |
| 1777566147 | 31.67° C | 48% | 1010.8 hPa | 0 mm | - | 625 W/m² | - |
* Rain latest hour (hover to see other rain measurements)
** Current wind speed in m/s (hover to see current wind gust speed)